Time;durP1;ratioP1;P1;durP2;ratioP2;P2;SDS_P1;SDS_P2;PMS_P1;PMS_P2;Temp;Humidity;BMP_temperature;BMP_pressure;BME280_temperature;BME280_humidity;BME280_pressure;Samples;Min_cycle;Max_cycle;Signal;HPM_P1;HPM_P2
2022/05/31 00:01:09;;;;;;;5.23;1.30;;;9.70;99.90;;;;;;5072506;28;20055;-47
2022/05/31 00:03:35;;;;;;;1.83;1.27;;;9.70;99.90;;;;;;5070407;28;20577;-47
2022/05/31 00:06:01;;;;;;;2.20;1.90;;;9.70;99.90;;;;;;5072813;28;20763;-47
2022/05/31 00:08:26;;;;;;;3.33;1.40;;;9.70;99.90;;;;;;5073289;28;20115;-47
2022/05/31 00:10:52;;;;;;;2.43;1.63;;;9.70;99.90;;;;;;5072826;28;20501;-47
2022/05/31 00:13:17;;;;;;;1.70;1.60;;;9.70;99.90;;;;;;5071614;28;20060;-48
2022/05/31 00:15:43;;;;;;;1.40;1.13;;;9.70;99.90;;;;;;5072669;28;20047;-47
2022/05/31 00:18:09;;;;;;;1.50;1.40;;;9.70;99.90;;;;;;5072826;28;20033;-47
2022/05/31 00:20:34;;;;;;;4.68;1.63;;;9.70;99.90;;;;;;5073129;28;20048;-47
2022/05/31 00:23:00;;;;;;;3.25;1.70;;;9.80;99.90;;;;;;5070713;28;20524;-48
2022/05/31 00:25:26;;;;;;;2.70;1.45;;;9.80;99.90;;;;;;5072497;28;20032;-47
2022/05/31 00:27:51;;;;;;;1.90;1.70;;;9.70;99.90;;;;;;5072492;28;20046;-47
2022/05/31 00:30:17;;;;;;;1.87;1.27;;;9.70;99.90;;;;;;5072277;28;20421;-47
2022/05/31 00:32:47;;;;;;;2.58;1.75;;;9.60;99.90;;;;;;5069700;28;20040;-47
2022/05/31 00:35:21;;;;;;;2.60;0.90;;;9.60;99.90;;;;;;5071465;28;20040;-48
2022/05/31 00:37:47;;;;;;;1.25;1.15;;;9.60;99.90;;;;;;5071930;28;20436;-47
2022/05/31 00:40:15;;;;;;;3.20;1.73;;;9.60;99.90;;;;;;5071236;28;20044;-47
2022/05/31 00:42:53;;;;;;;3.40;1.70;;;9.60;99.90;;;;;;5070755;28;20502;-47
2022/05/31 00:45:20;;;;;;;2.55;1.40;;;9.60;99.90;;;;;;5070907;28;20044;-46
2022/05/31 00:47:46;;;;;;;1.52;1.10;;;9.50;99.90;;;;;;5070938;28;20079;-47
2022/05/31 00:50:22;;;;;;;3.58;1.67;;;9.50;99.90;;;;;;5071541;28;20076;-48
2022/05/31 00:52:50;;;;;;;1.52;1.38;;;9.50;99.90;;;;;;5070937;28;20490;-47
2022/05/31 00:55:35;;;;;;;3.78;1.23;;;9.40;99.90;;;;;;5070906;28;20037;-47
2022/05/31 00:58:06;;;;;;;5.28;1.67;;;9.40;99.90;;;;;;5072122;28;20219;-48
2022/05/31 01:00:32;;;;;;;1.55;1.38;;;9.40;99.90;;;;;;5071787;28;20124;-48
2022/05/31 01:02:59;;;;;;;2.92;1.92;;;9.30;99.90;;;;;;5070446;28;20132;-47
2022/05/31 01:05:26;;;;;;;1.77;1.30;;;9.30;99.90;;;;;;5071091;28;20047;-47
2022/05/31 01:07:52;;;;;;;3.72;1.67;;;9.30;99.90;;;;;;5071464;28;20494;-47
2022/05/31 01:10:18;;;;;;;3.83;1.77;;;9.30;99.90;;;;;;5071317;28;20040;-49
2022/05/31 01:12:46;;;;;;;2.05;1.63;;;9.30;99.90;;;;;;5070832;28;20041;-47
2022/05/31 01:15:13;;;;;;;2.45;2.20;;;9.20;99.90;;;;;;5071339;28;20037;-50
2022/05/31 01:17:42;;;;;;;2.55;1.63;;;9.20;99.90;;;;;;5071487;28;20490;-47
2022/05/31 01:20:09;;;;;;;1.60;1.48;;;9.20;99.90;;;;;;5070856;28;20048;-46
2022/05/31 01:22:44;;;;;;;1.67;1.58;;;9.20;99.90;;;;;;5070514;28;20037;-48
2022/05/31 01:25:24;;;;;;;4.80;1.40;;;9.30;99.90;;;;;;5071219;28;20048;-47
2022/05/31 01:28:32;;;;;;;4.03;1.67;;;9.30;99.90;;;;;;5060123;28;20082;-48
2022/05/31 01:31:21;;;;;;;2.45;1.67;;;9.30;99.90;;;;;;5071454;28;20159;-46
2022/05/31 01:34:07;;;;;;;5.32;1.63;;;9.40;99.90;;;;;;5069669;28;20048;-48
2022/05/31 01:36:51;;;;;;;3.10;1.67;;;9.40;99.90;;;;;;5058635;28;20056;-47
2022/05/31 01:39:34;;;;;;;2.03;1.75;;;9.40;99.90;;;;;;5071300;28;20032;-49
2022/05/31 01:42:08;;;;;;;3.10;1.52;;;9.40;99.90;;;;;;5061271;28;20498;-47
2022/05/31 01:44:37;;;;;;;2.17;1.30;;;9.30;99.90;;;;;;5060192;28;20037;-46
2022/05/31 01:47:04;;;;;;;1.27;1.17;;;9.30;99.90;;;;;;5070747;28;20401;-47
2022/05/31 01:49:38;;;;;;;1.88;1.35;;;9.20;99.90;;;;;;5070839;28;20028;-47
2022/05/31 01:52:04;;;;;;;1.60;1.50;;;9.20;99.90;;;;;;5070207;28;20090;-48
2022/05/31 01:54:31;;;;;;;;;;;9.10;99.90;;;;;;5070571;28;20045;-47
2022/05/31 01:57:00;;;;;;;1.80;1.70;;;9.10;99.90;;;;;;5071074;28;19970;-47
2022/05/31 01:59:31;;;;;;;3.00;2.20;;;9.00;99.90;;;;;;5069413;28;20040;-47
2022/05/31 02:01:59;;;;;;;2.10;1.83;;;9.00;99.90;;;;;;5070464;28;20116;-48
2022/05/31 02:04:25;;;;;;;3.92;1.88;;;9.00;99.90;;;;;;5069911;28;20032;-48
2022/05/31 02:07:10;;;;;;;1.88;1.73;;;9.00;99.90;;;;;;5071104;28;20619;-47
2022/05/31 02:09:40;;;;;;;2.35;1.90;;;9.00;99.90;;;;;;5070404;28;20097;-47
2022/05/31 02:12:08;;;;;;;3.03;1.98;;;9.00;99.90;;;;;;5069456;28;20037;-48
2022/05/31 02:14:34;;;;;;;1.63;1.52;;;9.00;99.90;;;;;;5063218;28;20033;-47
2022/05/31 02:17:00;;;;;;;2.03;1.83;;;9.00;99.90;;;;;;5070381;28;20449;-47
2022/05/31 02:19:27;;;;;;;2.20;1.93;;;8.90;99.90;;;;;;5070210;28;20063;-48
2022/05/31 02:21:54;;;;;;;2.10;1.80;;;8.90;99.90;;;;;;5069164;28;20533;-47
2022/05/31 02:24:21;;;;;;;1.92;1.73;;;8.90;99.90;;;;;;5068786;28;20492;-47
2022/05/31 02:26:47;;;;;;;1.83;1.60;;;8.90;99.90;;;;;;5070374;28;20047;-47
2022/05/31 02:29:17;;;;;;;3.33;1.67;;;8.90;99.90;;;;;;5069869;28;20444;-47
2022/05/31 02:31:43;;;;;;;3.10;1.60;;;8.90;99.90;;;;;;5069979;28;20044;-47
2022/05/31 02:34:11;;;;;;;1.90;1.27;;;8.80;99.90;;;;;;5068833;28;20123;-47
2022/05/31 02:36:37;;;;;;;1.13;1.02;;;8.80;99.90;;;;;;5068927;28;20084;-48
2022/05/31 02:39:04;;;;;;;1.42;1.08;;;8.80;99.90;;;;;;5069088;28;20451;-48
2022/05/31 02:41:30;;;;;;;1.15;1.05;;;8.80;99.90;;;;;;5068598;28;20363;-47
2022/05/31 02:43:57;;;;;;;2.88;0.95;;;8.80;99.90;;;;;;5068772;28;20040;-47
2022/05/31 02:46:23;;;;;;;1.52;1.33;;;8.80;99.90;;;;;;5069764;28;20044;-47
2022/05/31 02:48:49;;;;;;;1.10;1.00;;;8.80;99.90;;;;;;5070207;28;20044;-47
2022/05/31 02:51:15;;;;;;;2.35;1.33;;;8.70;99.90;;;;;;5068782;28;20033;-48
2022/05/31 02:53:40;;;;;;;1.80;1.70;;;8.70;99.90;;;;;;5067765;28;20051;-47
2022/05/31 02:56:07;;;;;;;2.33;2.13;;;8.70;99.90;;;;;;5069076;28;20033;-47
2022/05/31 02:58:33;;;;;;;2.53;2.00;;;8.70;99.90;;;;;;5069716;28;20040;-47
2022/05/31 03:00:59;;;;;;;2.25;2.00;;;8.70;99.90;;;;;;5067677;28;20046;-47
2022/05/31 03:03:25;;;;;;;3.15;2.17;;;8.70;99.90;;;;;;5069033;28;20036;-47
2022/05/31 03:05:51;;;;;;;2.47;2.28;;;8.80;99.90;;;;;;5069062;28;20037;-47
2022/05/31 03:08:18;;;;;;;2.87;2.20;;;8.80;99.90;;;;;;5069651;28;20039;-47
2022/05/31 03:10:49;;;;;;;2.65;2.40;;;8.80;99.90;;;;;;5068894;28;20029;-47
2022/05/31 03:13:20;;;;;;;2.67;2.05;;;8.80;99.90;;;;;;5068392;28;20036;-47
2022/05/31 03:15:47;;;;;;;3.78;2.38;;;8.80;99.90;;;;;;5069533;28;20028;-47
2022/05/31 03:18:19;;;;;;;3.65;2.20;;;8.90;99.90;;;;;;5068954;28;20040;-47
2022/05/31 03:20:48;;;;;;;3.70;2.60;;;8.90;99.90;;;;;;5055244;28;20131;-47
2022/05/31 03:23:49;;;;;;;3.10;2.72;;;8.90;99.90;;;;;;5068439;28;20428;-47
2022/05/31 03:26:18;;;;;;;2.72;2.53;;;8.90;99.90;;;;;;5021540;28;20060;-47
2022/05/31 03:28:44;;;;;;;3.70;3.33;;;8.90;99.90;;;;;;5069297;28;20094;-48
2022/05/31 03:31:10;;;;;;;5.75;4.13;;;8.90;99.90;;;;;;5067886;28;20049;-47
2022/05/31 03:33:35;;;;;;;3.92;3.60;;;9.00;99.90;;;;;;5068619;28;20115;-47
2022/05/31 03:36:02;;;;;;;3.03;2.83;;;9.00;99.90;;;;;;5067285;28;20119;-50
2022/05/31 03:38:27;;;;;;;3.65;3.40;;;9.00;99.90;;;;;;5069310;28;20111;-47
2022/05/31 03:40:56;;;;;;;3.20;2.70;;;9.10;99.90;;;;;;5069441;28;20482;-47
2022/05/31 03:43:23;;;;;;;3.25;2.85;;;9.10;99.90;;;;;;5067998;28;20043;-46
2022/05/31 03:45:48;;;;;;;4.95;3.03;;;9.10;99.90;;;;;;5069234;28;20043;-47
2022/05/31 03:48:14;;;;;;;5.40;4.40;;;9.10;99.90;;;;;;5067921;28;20028;-47
2022/05/31 03:50:40;;;;;;;4.60;3.87;;;9.10;99.90;;;;;;5069502;28;20047;-48
2022/05/31 03:53:11;;;;;;;3.83;3.63;;;9.10;99.90;;;;;;5067582;28;20279;-48
2022/05/31 03:55:42;;;;;;;4.63;4.10;;;9.10;99.90;;;;;;5069948;28;20032;-47
2022/05/31 03:58:08;;;;;;;3.80;3.55;;;9.10;99.90;;;;;;5069410;28;20032;-48
2022/05/31 04:00:35;;;;;;;4.15;3.78;;;9.20;99.90;;;;;;5069528;28;20044;-47
2022/05/31 04:03:00;;;;;;;4.75;3.20;;;9.20;99.90;;;;;;5068137;28;20044;-47
2022/05/31 04:05:26;;;;;;;5.60;5.10;;;9.20;99.90;;;;;;5070184;28;20073;-47
2022/05/31 04:08:01;;;;;;;4.80;4.40;;;9.20;99.90;;;;;;5072528;28;20090;-47
2022/05/31 04:10:29;;;;;;;5.88;4.78;;;9.30;99.90;;;;;;5073222;28;20107;-48
2022/05/31 04:12:55;;;;;;;4.00;3.65;;;9.30;99.90;;;;;;5070782;28;20397;-47
2022/05/31 04:15:20;;;;;;;4.63;4.23;;;9.30;99.90;;;;;;5072509;28;20040;-48
2022/05/31 04:17:46;;;;;;;4.20;3.80;;;9.30;99.90;;;;;;5073376;28;20401;-47
2022/05/31 04:20:11;;;;;;;6.27;4.37;;;9.30;99.90;;;;;;5088064;28;20071;-47
2022/05/31 04:22:37;;;;;;;5.70;4.50;;;9.30;99.90;;;;;;5072168;28;20067;-48
2022/05/31 04:25:03;;;;;;;4.50;4.07;;;9.40;99.90;;;;;;5071453;28;20123;-47
2022/05/31 04:27:29;;;;;;;9.30;4.68;;;9.40;99.90;;;;;;5072635;28;20041;-47
2022/05/31 04:29:54;;;;;;;5.30;4.90;;;9.40;99.90;;;;;;5072274;28;20653;-47
2022/05/31 04:32:21;;;;;;;7.55;4.72;;;9.40;99.90;;;;;;5071866;28;20024;-47
2022/05/31 04:34:47;;;;;;;4.82;4.40;;;9.40;99.90;;;;;;5070834;28;20055;-47
2022/05/31 04:37:13;;;;;;;5.90;5.10;;;9.40;99.90;;;;;;5088262;28;20044;-47
2022/05/31 04:39:39;;;;;;;;;;;9.40;99.90;;;;;;5073096;28;20036;-47
2022/05/31 04:42:04;;;;;;;5.25;4.75;;;9.40;99.90;;;;;;5071262;28;19916;-48
2022/05/31 04:44:30;;;;;;;4.50;4.07;;;9.40;99.90;;;;;;5071582;28;20036;-48
2022/05/31 04:46:55;;;;;;;8.17;4.77;;;9.50;99.90;;;;;;5071901;28;20062;-48
2022/05/31 04:49:21;;;;;;;5.33;4.53;;;9.50;99.90;;;;;;5071567;28;20123;-47
2022/05/31 04:51:47;;;;;;;4.20;3.80;;;9.50;99.90;;;;;;5071584;28;20048;-47
2022/05/31 04:54:13;;;;;;;4.80;4.50;;;9.50;99.90;;;;;;5071154;28;20041;-48
2022/05/31 04:56:39;;;;;;;8.02;4.15;;;9.50;99.90;;;;;;5071955;28;20331;-48
2022/05/31 04:59:04;;;;;;;4.25;3.72;;;9.60;99.90;;;;;;5071501;28;20025;-48
2022/05/31 05:01:30;;;;;;;6.23;4.27;;;9.60;99.90;;;;;;5071593;28;20509;-47
2022/05/31 05:03:56;;;;;;;6.43;4.40;;;9.60;99.90;;;;;;5070179;28;20078;-47
2022/05/31 05:06:22;;;;;;;5.18;4.32;;;9.60;99.90;;;;;;5071719;28;20051;-47
2022/05/31 05:08:48;;;;;;;6.88;4.32;;;9.70;99.90;;;;;;5071564;28;20549;-48
2022/05/31 05:11:20;;;;;;;5.15;4.65;;;9.60;99.90;;;;;;5071339;28;20086;-47
2022/05/31 05:13:45;;;;;;;4.88;4.32;;;9.70;99.90;;;;;;5070606;28;20127;-47
2022/05/31 05:16:13;;;;;;;6.13;5.13;;;9.70;99.90;;;;;;5071418;28;20024;-47
2022/05/31 05:18:39;;;;;;;8.50;4.97;;;9.70;99.90;;;;;;5070335;28;20107;-48
2022/05/31 05:21:07;;;;;;;4.73;4.27;;;9.70;99.90;;;;;;5071646;28;20496;-48
2022/05/31 05:23:33;;;;;;;5.72;4.30;;;9.70;99.90;;;;;;5070081;28;20067;-47
2022/05/31 05:25:59;;;;;;;5.38;4.50;;;9.70;99.90;;;;;;5071307;28;20033;-47
2022/05/31 05:31:30;;;;;;;6.57;4.45;;;9.70;99.90;;;;;;5070206;28;20123;-50
2022/05/31 05:33:56;;;;;;;5.43;4.55;;;9.70;99.90;;;;;;5066615;28;20037;-47
2022/05/31 05:36:23;;;;;;;6.05;4.45;;;9.70;99.90;;;;;;5062884;28;20036;-47
2022/05/31 05:38:49;;;;;;;6.28;3.80;;;9.70;99.90;;;;;;5071733;28;20122;-48
2022/05/31 05:41:15;;;;;;;4.75;4.25;;;9.80;99.90;;;;;;5071228;28;20497;-48
2022/05/31 05:43:41;;;;;;;12.90;4.93;;;9.80;99.90;;;;;;5069922;28;20098;-48
2022/05/31 05:46:19;;;;;;;4.63;4.33;;;9.80;99.90;;;;;;5068400;28;20029;-47
2022/05/31 05:48:45;;;;;;;6.57;4.97;;;9.90;99.90;;;;;;5069044;28;20043;-48
2022/05/31 05:51:16;;;;;;;4.40;3.50;;;9.90;99.90;;;;;;5065978;28;20551;-47
2022/05/31 05:53:41;;;;;;;6.55;5.10;;;9.90;99.90;;;;;;5065447;28;20037;-47
2022/05/31 05:56:07;;;;;;;5.03;4.47;;;10.00;99.90;;;;;;5056426;28;20083;-47
2022/05/31 05:58:33;;;;;;;8.68;4.93;;;10.00;99.90;;;;;;5059969;28;20040;-46
2022/05/31 06:01:00;;;;;;;5.10;4.43;;;10.10;99.90;;;;;;5051723;28;20036;-48
2022/05/31 06:03:52;;;;;;;5.43;4.53;;;10.20;99.90;;;;;;5048057;28;20333;-47
2022/05/31 06:06:18;;;;;;;5.90;4.72;;;10.30;99.90;;;;;;5046125;28;20515;-47
2022/05/31 06:08:49;;;;;;;6.78;4.63;;;10.40;99.90;;;;;;5050861;28;20037;-48
2022/05/31 06:11:25;;;;;;;9.00;4.15;;;10.50;99.90;;;;;;5057941;28;20072;-47
2022/05/31 06:13:54;;;;;;;5.90;4.55;;;10.60;99.90;;;;;;5049644;28;20048;-47
2022/05/31 06:16:24;;;;;;;7.93;4.57;;;10.80;99.90;;;;;;5050895;28;20041;-47
2022/05/31 06:18:55;;;;;;;6.35;4.30;;;10.90;99.90;;;;;;5050958;28;20037;-48
2022/05/31 06:21:23;;;;;;;5.65;4.25;;;11.10;99.90;;;;;;5057493;28;20525;-49
2022/05/31 06:23:49;;;;;;;6.22;4.00;;;11.30;99.90;;;;;;5066035;28;20048;-48
2022/05/31 06:26:16;;;;;;;6.93;3.65;;;11.40;99.90;;;;;;5065503;28;20072;-49
2022/05/31 06:28:43;;;;;;;9.27;3.42;;;11.40;99.90;;;;;;5064692;28;20047;-47
2022/05/31 06:31:08;;;;;;;11.23;4.25;;;11.40;99.90;;;;;;5064960;28;20068;-49
2022/05/31 06:33:34;;;;;;;5.90;5.32;;;11.50;99.90;;;;;;5064497;28;20060;-47
2022/05/31 06:36:01;;;;;;;5.50;4.20;;;11.60;99.90;;;;;;5063104;28;20047;-49
2022/05/31 06:38:28;;;;;;;4.20;3.80;;;11.70;99.90;;;;;;5063495;28;20040;-47
2022/05/31 06:40:53;;;;;;;2.72;2.33;;;11.80;99.90;;;;;;5064665;28;20040;-49
2022/05/31 06:43:19;;;;;;;6.33;3.07;;;12.00;99.90;;;;;;5063215;28;20047;-48
2022/05/31 06:45:44;;;;;;;5.90;3.13;;;12.10;99.90;;;;;;5065036;28;20040;-47
2022/05/31 06:48:10;;;;;;;8.73;3.17;;;12.20;99.90;;;;;;5065644;28;20037;-48
2022/05/31 06:50:35;;;;;;;3.87;2.63;;;12.30;99.90;;;;;;5064904;28;20048;-47
2022/05/31 06:58:29;;;;;;;49.50;6.40;;;12.60;99.90;;;;;;5051017;28;20048;-48
2022/05/31 07:00:56;;;;;;;3.20;2.57;;;12.70;99.90;;;;;;5065823;28;20036;-51
2022/05/31 07:03:22;;;;;;;5.15;2.15;;;12.80;99.90;;;;;;5058215;28;20048;-48
2022/05/31 07:05:47;;;;;;;11.93;3.08;;;12.90;99.90;;;;;;5063680;28;20036;-47
2022/05/31 07:08:13;;;;;;;13.85;3.10;;;13.00;99.90;;;;;;5056312;28;20128;-48
2022/05/31 07:10:39;;;;;;;9.87;2.40;;;13.10;99.90;;;;;;5064538;28;20078;-46
2022/05/31 07:13:05;;;;;;;12.80;2.17;;;13.30;99.90;;;;;;5061639;28;20456;-49
2022/05/31 07:15:31;;;;;;;14.53;2.87;;;13.40;99.90;;;;;;5063652;28;20456;-48
2022/05/31 07:17:57;;;;;;;8.52;1.83;;;13.60;99.90;;;;;;5064617;28;20042;-48
2022/05/31 07:20:23;;;;;;;7.45;2.47;;;13.70;99.90;;;;;;5063487;28;20107;-47
2022/05/31 07:22:51;;;;;;;3.90;2.00;;;13.80;99.90;;;;;;5063080;28;20070;-49
2022/05/31 07:25:17;;;;;;;5.07;1.63;;;14.00;99.90;;;;;;5062867;28;20471;-48
2022/05/31 07:27:42;;;;;;;6.28;1.27;;;14.10;99.90;;;;;;5064609;28;20119;-47
2022/05/31 07:30:08;;;;;;;5.77;2.20;;;14.10;99.90;;;;;;5063553;28;20053;-48
2022/05/31 07:32:34;;;;;;;5.38;2.17;;;14.20;99.90;;;;;;5063044;28;20033;-47
2022/05/31 07:35:00;;;;;;;4.63;2.33;;;14.30;99.90;;;;;;5063199;28;20375;-49
2022/05/31 07:37:25;;;;;;;3.53;2.10;;;14.30;99.90;;;;;;5063559;28;20044;-47
2022/05/31 07:39:52;;;;;;;8.32;2.42;;;14.40;98.80;;;;;;5063729;28;20279;-48
2022/05/31 07:42:17;;;;;;;;;;;14.60;99.20;;;;;;5068555;28;20036;-47
2022/05/31 07:44:43;;;;;;;3.80;2.28;;;14.60;99.40;;;;;;5068276;28;19974;-48
2022/05/31 07:47:08;;;;;;;3.63;0.90;;;14.70;98.40;;;;;;5066314;28;20549;-48
2022/05/31 07:49:34;;;;;;;6.00;1.73;;;14.80;98.10;;;;;;5065291;28;20283;-48
2022/05/31 07:51:59;;;;;;;4.05;1.73;;;14.90;96.10;;;;;;5067893;28;20373;-48
2022/05/31 07:54:29;;;;;;;5.10;2.47;;;14.90;97.20;;;;;;5066888;28;20058;-47
2022/05/31 07:56:54;;;;;;;4.20;2.08;;;15.00;96.70;;;;;;5068198;28;20036;-47
2022/05/31 07:59:20;;;;;;;3.10;1.87;;;15.10;94.80;;;;;;5063586;28;20765;-48
2022/05/31 08:01:45;;;;;;;2.65;2.25;;;15.20;95.60;;;;;;5067149;28;20098;-47
2022/05/31 08:04:13;;;;;;;2.97;2.08;;;15.20;95.30;;;;;;5064030;28;20056;-48
2022/05/31 08:06:39;;;;;;;4.75;1.88;;;15.30;94.70;;;;;;5066916;28;20083;-47
2022/05/31 08:09:04;;;;;;;5.10;1.67;;;15.40;94.80;;;;;;5067326;28;20072;-48
2022/05/31 08:11:32;;;;;;;4.97;1.93;;;15.50;93.20;;;;;;5067078;28;20306;-46
2022/05/31 08:13:58;;;;;;;3.88;1.50;;;15.60;93.50;;;;;;5066782;28;20279;-47
2022/05/31 08:16:26;;;;;;;6.00;1.50;;;15.70;94.00;;;;;;5067660;28;20040;-48
2022/05/31 08:18:52;;;;;;;3.15;1.13;;;15.70;92.10;;;;;;5067455;28;20064;-47
2022/05/31 08:21:26;;;;;;;4.07;2.17;;;15.70;93.00;;;;;;5067293;28;20036;-49
2022/05/31 08:24:24;;;;;;;5.03;2.15;;;15.80;93.70;;;;;;5067474;28;20049;-48
2022/05/31 08:26:50;;;;;;;5.05;2.35;;;15.80;90.30;;;;;;5059453;28;20072;-48
2022/05/31 08:29:17;;;;;;;4.72;2.90;;;15.80;91.30;;;;;;5067102;28;20038;-47
2022/05/31 08:31:43;;;;;;;5.95;3.92;;;15.90;91.60;;;;;;5060736;28;20044;-48
2022/05/31 08:34:08;;;;;;;7.13;3.25;;;16.00;91.80;;;;;;5073433;28;20028;-47
2022/05/31 08:36:34;;;;;;;6.95;4.00;;;16.10;90.00;;;;;;5083947;28;20082;-48
2022/05/31 08:39:00;;;;;;;5.93;3.10;;;16.10;88.30;;;;;;5082758;28;20047;-48
2022/05/31 08:41:27;;;;;;;4.68;3.55;;;16.10;85.40;;;;;;5085628;28;20063;-47
2022/05/31 08:44:04;;;;;;;7.53;3.88;;;16.10;83.40;;;;;;5083500;28;20416;-48
2022/05/31 08:46:53;;;;;;;5.32;2.90;;;16.00;84.30;;;;;;5076281;28;20362;-48
2022/05/31 08:51:52;;;;;;;6.57;2.53;;;15.90;83.90;;;;;;5083404;28;20044;-47
2022/05/31 08:52:28;;;;;;;6.75;4.25;;;15.90;83.40;;;;;;5073989;28;20060;-48
2022/05/31 08:57:47;;;;;;;3.95;2.75;;;16.00;84.00;;;;;;5073160;28;20052;-47
2022/05/31 09:00:23;;;;;;;7.13;3.85;;;16.00;81.00;;;;;;5081519;28;20033;-47
2022/05/31 09:02:54;;;;;;;10.65;4.78;;;16.00;78.50;;;;;;5080809;28;20048;-47
2022/05/31 09:05:42;;;;;;;10.93;5.45;;;16.00;81.70;;;;;;5083393;28;20533;-47
2022/05/31 09:08:21;;;;;;;5.22;4.13;;;16.00;81.60;;;;;;5077736;28;20115;-48
2022/05/31 09:10:55;;;;;;;9.10;5.10;;;16.10;80.10;;;;;;5080305;28;20036;-48
2022/05/31 09:13:33;;;;;;;5.28;4.13;;;16.30;77.90;;;;;;5084585;28;20047;-48
2022/05/31 09:16:09;;;;;;;9.27;4.55;;;16.40;78.10;;;;;;5083428;28;20041;-47
2022/05/31 09:18:50;;;;;;;7.88;4.30;;;16.40;77.30;;;;;;5079553;28;20068;-47
2022/05/31 09:21:37;;;;;;;8.85;4.35;;;16.50;78.20;;;;;;5084153;28;20071;-47
2022/05/31 09:24:04;;;;;;;11.00;3.30;;;16.70;80.80;;;;;;5082958;28;20050;-47
2022/05/31 09:26:58;;;;;;;4.07;3.00;;;16.80;80.80;;;;;;5078660;28;20077;-48
2022/05/31 09:30:01;;;;;;;7.55;3.33;;;16.90;78.00;;;;;;5076956;28;20039;-50
2022/05/31 09:32:52;;;;;;;6.47;2.85;;;16.90;77.60;;;;;;5072571;28;20461;-48
2022/05/31 09:35:18;;;;;;;7.13;1.60;;;16.80;71.50;;;;;;5082542;28;20060;-47
2022/05/31 09:38:18;;;;;;;4.47;1.50;;;16.70;68.90;;;;;;5079141;28;20076;-47
2022/05/31 09:40:47;;;;;;;2.92;2.00;;;16.80;73.60;;;;;;5085554;28;20296;-48
2022/05/31 09:43:38;;;;;;;3.58;1.65;;;16.80;73.10;;;;;;5080354;28;20032;-48
2022/05/31 09:46:06;;;;;;;7.53;2.30;;;16.80;71.50;;;;;;5079362;28;20212;-47
2022/05/31 09:48:32;;;;;;;3.53;1.85;;;16.80;72.90;;;;;;5083813;28;20123;-47
2022/05/31 09:51:25;;;;;;;4.53;2.40;;;16.70;73.60;;;;;;5064186;28;20126;-48
2022/05/31 09:59:26;;;;;;;4.63;2.70;;;16.70;72.80;;;;;;5074255;28;20049;-46
2022/05/31 10:01:52;;;;;;;4.35;1.88;;;16.70;71.50;;;;;;5059630;28;20130;-46
2022/05/31 10:04:30;;;;;;;5.18;1.65;;;16.80;73.80;;;;;;5065504;28;20101;-48
2022/05/31 10:07:03;;;;;;;6.07;2.40;;;16.80;71.30;;;;;;5061349;28;20126;-48
2022/05/31 10:09:38;;;;;;;4.90;2.58;;;16.80;70.80;;;;;;5057937;28;20087;-46
2022/05/31 10:12:10;;;;;;;3.65;2.13;;;16.90;71.60;;;;;;5064265;28;20067;-48
2022/05/31 10:14:39;;;;;;;7.53;2.13;;;16.90;68.20;;;;;;5065096;28;20068;-48
2022/05/31 10:17:29;;;;;;;6.03;2.83;;;17.00;69.70;;;;;;5060946;28;20482;-46
2022/05/31 10:20:12;;;;;;;3.22;2.22;;;17.10;74.00;;;;;;5057649;28;20043;-47
2022/05/31 10:22:39;;;;;;;4.53;2.35;;;17.20;68.30;;;;;;5056958;28;20115;-49
2022/05/31 10:25:26;;;;;;;4.78;2.95;;;17.20;70.10;;;;;;5063611;28;20047;-48
2022/05/31 10:28:01;;;;;;;6.23;3.67;;;17.30;69.30;;;;;;5064408;28;20048;-50
2022/05/31 10:30:28;;;;;;;3.78;3.33;;;17.30;70.30;;;;;;5065642;28;20036;-47
2022/05/31 10:32:57;;;;;;;5.05;3.00;;;17.20;69.50;;;;;;5064356;28;20072;-49
2022/05/31 10:35:29;;;;;;;7.93;3.65;;;17.00;68.80;;;;;;5065105;28;20401;-47
2022/05/31 10:38:00;;;;;;;5.47;2.72;;;17.00;65.80;;;;;;5065043;28;20109;-48
2022/05/31 10:40:41;;;;;;;3.92;3.00;;;16.90;68.60;;;;;;5065028;28;20462;-48
2022/05/31 10:43:28;;;;;;;5.10;3.05;;;16.80;65.90;;;;;;5064809;28;20047;-48
2022/05/31 10:45:55;;;;;;;6.97;3.35;;;16.80;66.50;;;;;;5065488;28;20379;-47
2022/05/31 10:48:21;;;;;;;9.07;3.65;;;16.70;67.40;;;;;;5065217;28;20047;-48
2022/05/31 10:51:05;;;;;;;3.20;2.90;;;16.70;70.50;;;;;;5065305;28;20093;-48
2022/05/31 10:53:46;;;;;;;7.43;4.20;;;16.60;68.60;;;;;;5064274;28;20360;-49
2022/05/31 10:56:20;;;;;;;5.38;3.00;;;16.50;72.10;;;;;;5065159;28;20062;-47
2022/05/31 10:59:00;;;;;;;19.75;6.30;;;16.50;70.00;;;;;;5065471;28;20039;-47
2022/05/31 11:01:38;;;;;;;7.60;3.40;;;16.50;71.80;;;;;;5064824;28;20036;-48
2022/05/31 11:04:22;;;;;;;4.93;2.97;;;16.50;70.30;;;;;;5064457;28;20414;-48
2022/05/31 11:07:07;;;;;;;7.30;5.45;;;16.50;70.40;;;;;;5063604;28;20078;-48
2022/05/31 11:13:02;;;;;;;5.55;3.22;;;16.40;67.90;;;;;;5062197;28;20056;-49
2022/05/31 11:15:57;;;;;;;4.63;2.85;;;16.40;69.00;;;;;;5056871;28;20052;-47
2022/05/31 11:18:56;;;;;;;6.40;2.92;;;16.30;70.40;;;;;;5048813;28;20052;-49
2022/05/31 11:21:46;;;;;;;4.85;3.40;;;16.30;70.40;;;;;;5063075;28;20078;-48
2022/05/31 11:24:31;;;;;;;7.82;3.58;;;16.30;70.30;;;;;;5063880;28;20039;-47
2022/05/31 11:27:02;;;;;;;3.58;3.20;;;16.30;70.20;;;;;;5061273;28;20055;-49
2022/05/31 11:29:42;;;;;;;5.60;3.05;;;16.30;71.00;;;;;;5064887;28;20033;-49
2022/05/31 11:32:50;;;;;;;4.35;2.88;;;16.30;71.10;;;;;;5063952;28;20419;-48
2022/05/31 11:35:35;;;;;;;;;;;16.20;70.20;;;;;;5060613;28;20111;-47
2022/05/31 11:38:10;;;;;;;12.20;3.92;;;16.10;69.60;;;;;;5063932;28;19982;-48
2022/05/31 11:40:36;;;;;;;5.63;3.88;;;16.10;70.50;;;;;;5063111;28;20032;-48
2022/05/31 11:43:18;;;;;;;38.13;11.07;;;16.10;71.90;;;;;;5061603;28;20352;-48
2022/05/31 11:45:50;;;;;;;11.63;5.00;;;16.10;72.80;;;;;;5064695;28;20051;-48
2022/05/31 11:48:34;;;;;;;6.90;4.60;;;16.10;74.30;;;;;;5065076;28;20508;-47
2022/05/31 11:51:31;;;;;;;7.03;4.60;;;16.10;75.50;;;;;;5064703;28;20044;-47
2022/05/31 11:54:11;;;;;;;6.57;3.75;;;16.20;74.10;;;;;;5062505;28;20129;-47
2022/05/31 11:56:59;;;;;;;6.03;4.15;;;16.20;76.20;;;;;;5062902;28;20536;-47
2022/05/31 11:59:44;;;;;;;6.03;4.28;;;16.30;75.00;;;;;;5064450;28;20111;-46
2022/05/31 12:02:19;;;;;;;19.40;6.75;;;16.20;76.20;;;;;;5063848;28;20525;-47
2022/05/31 12:04:53;;;;;;;11.48;4.07;;;16.30;75.30;;;;;;5064071;28;20490;-47
2022/05/31 12:07:32;;;;;;;71.35;20.75;;;16.40;78.70;;;;;;5063836;28;20089;-46
2022/05/31 12:10:28;;;;;;;6.20;4.25;;;16.60;78.30;;;;;;5064422;28;20438;-48
2022/05/31 12:12:57;;;;;;;8.93;4.65;;;16.70;74.30;;;;;;5062082;28;20440;-47
2022/05/31 12:15:29;;;;;;;47.85;13.95;;;16.80;75.90;;;;;;5063790;28;20123;-47
2022/05/31 12:18:30;;;;;;;9.43;5.97;;;16.80;75.60;;;;;;5062592;28;20041;-48
2022/05/31 12:21:14;;;;;;;6.20;4.13;;;16.80;75.10;;;;;;5062510;28;20078;-48
2022/05/31 12:23:59;;;;;;;4.95;3.88;;;16.70;75.20;;;;;;5063967;28;20071;-48
2022/05/31 12:26:27;;;;;;;5.45;3.72;;;16.70;74.10;;;;;;5064347;28;20048;-47
2022/05/31 12:29:09;;;;;;;6.47;4.88;;;16.70;74.20;;;;;;5068165;28;20428;-49
2022/05/31 12:31:37;;;;;;;6.78;4.38;;;16.70;73.90;;;;;;5066633;28;20691;-47
2022/05/31 12:34:12;;;;;;;5.68;3.85;;;16.70;72.60;;;;;;5066654;28;20115;-47
2022/05/31 12:36:59;;;;;;;6.85;3.83;;;16.70;69.00;;;;;;5060518;28;20060;-48
2022/05/31 12:39:33;;;;;;;7.55;3.88;;;17.00;73.10;;;;;;5075996;28;20450;-48
2022/05/31 12:42:14;;;;;;;5.45;3.72;;;17.10;68.90;;;;;;5080486;28;20413;-47
2022/05/31 12:44:45;;;;;;;7.53;3.90;;;17.20;69.50;;;;;;5084196;28;20463;-47
2022/05/31 12:47:19;;;;;;;5.72;3.40;;;17.40;68.10;;;;;;5078713;28;20110;-47
2022/05/31 12:49:49;;;;;;;5.07;3.50;;;17.50;66.90;;;;;;5083578;28;20067;-47
2022/05/31 12:55:23;;;;;;;6.68;3.20;;;17.60;68.10;;;;;;5082914;28;20040;-48
2022/05/31 13:00:49;;;;;;;4.18;3.15;;;17.80;64.10;;;;;;5082716;28;20051;-47
2022/05/31 13:03:33;;;;;;;8.00;3.50;;;17.80;63.90;;;;;;5082002;28;20444;-46
2022/05/31 13:06:00;;;;;;;6.55;2.92;;;17.80;62.60;;;;;;5076702;28;20497;-47
2022/05/31 13:08:59;;;;;;;6.85;3.47;;;17.70;64.60;;;;;;5081564;28;20460;-47
2022/05/31 13:20:11;;;;;;;5.10;2.97;;;17.50;61.80;;;;;;5085922;28;20048;-47
2022/05/31 13:22:51;;;;;;;3.92;2.33;;;17.40;62.20;;;;;;5077256;28;20169;-47
2022/05/31 13:25:38;;;;;;;5.53;3.13;;;17.30;62.10;;;;;;5081194;28;20402;-48
2022/05/31 13:28:04;;;;;;;3.50;3.20;;;17.30;63.80;;;;;;5081172;28;20127;-46
2022/05/31 13:30:33;;;;;;;3.35;2.35;;;17.30;63.80;;;;;;5083480;28;20127;-47
2022/05/31 13:33:11;;;;;;;7.50;2.42;;;17.30;63.70;;;;;;5080788;28;20063;-48
2022/05/31 13:35:37;;;;;;;9.23;3.38;;;17.40;63.70;;;;;;5079980;28;20040;-47
2022/05/31 13:38:06;;;;;;;7.18;3.28;;;17.40;61.60;;;;;;5084162;28;20044;-47
2022/05/31 13:40:32;;;;;;;6.88;3.05;;;17.40;62.80;;;;;;5077498;28;20048;-48
2022/05/31 13:42:58;;;;;;;;;;;17.40;64.10;;;;;;5077773;28;20044;-48
2022/05/31 13:45:26;;;;;;;4.13;2.72;;;17.50;62.40;;;;;;5067308;28;19916;-46
2022/05/31 13:47:53;;;;;;;4.30;2.40;;;17.50;64.10;;;;;;5070278;28;20096;-47
2022/05/31 13:50:23;;;;;;;3.78;2.10;;;17.60;63.20;;;;;;5085508;28;20072;-48